Time;durP1;ratioP1;P1;durP2;ratioP2;P2;SDS_P1;SDS_P2;PMS_P1;PMS_P2;Temp;Humidity;BMP_temperature;BMP_pressure;BME280_temperature;BME280_humidity;BME280_pressure;Samples;Min_cycle;Max_cycle;Signal;HPM_P1;HPM_P2
2021/07/21 00:00:50;;;;;;;15.75;10.77;;;13.80;99.90;;;;;;5149465;28;20031;-83
2021/07/21 00:03:18;;;;;;;22.20;10.57;;;13.80;99.90;;;;;;5132727;28;20404;-83
2021/07/21 00:05:47;;;;;;;18.10;10.50;;;13.80;99.90;;;;;;5149449;28;20116;-82
2021/07/21 00:08:16;;;;;;;18.20;10.27;;;13.80;99.90;;;;;;5132781;28;20042;-82
2021/07/21 00:10:44;;;;;;;16.17;10.52;;;13.80;99.90;;;;;;5149228;28;20066;-82
2021/07/21 00:13:32;;;;;;;17.65;10.60;;;13.70;99.90;;;;;;5148965;28;20497;-83
2021/07/21 00:16:16;;;;;;;16.48;9.82;;;13.70;99.90;;;;;;5121117;28;20036;-83
2021/07/21 00:21:12;;;;;;;16.38;10.27;;;13.70;99.90;;;;;;5148617;28;20456;-83
2021/07/21 00:23:39;;;;;;;14.48;9.77;;;13.60;99.90;;;;;;5131974;28;20043;-81
2021/07/21 00:26:07;;;;;;;17.17;9.90;;;13.70;99.90;;;;;;5131536;28;20437;-83
2021/07/21 00:28:38;;;;;;;16.42;10.45;;;13.60;99.90;;;;;;5149182;28;20041;-83
2021/07/21 00:31:05;;;;;;;15.70;10.20;;;13.60;99.90;;;;;;5148667;28;20036;-83
2021/07/21 00:33:32;;;;;;;18.45;10.40;;;13.60;99.90;;;;;;5115441;28;20065;-83
2021/07/21 00:35:59;;;;;;;16.05;10.55;;;13.60;99.90;;;;;;5114665;28;20563;-83
2021/07/21 00:38:26;;;;;;;15.40;10.00;;;13.60;99.90;;;;;;5115390;28;20031;-83
2021/07/21 00:40:53;;;;;;;18.58;10.60;;;13.70;99.90;;;;;;5114822;28;20043;-84
2021/07/21 00:43:19;;;;;;;17.63;10.38;;;13.70;99.90;;;;;;5131990;28;20070;-83
2021/07/21 00:45:46;;;;;;;17.50;10.63;;;13.60;99.90;;;;;;5114958;28;20081;-84
2021/07/21 00:48:13;;;;;;;17.15;10.57;;;13.70;99.90;;;;;;5130947;28;20035;-83
2021/07/21 00:50:40;;;;;;;18.73;11.13;;;13.70;99.90;;;;;;5131782;28;20559;-83
2021/07/21 00:53:07;;;;;;;16.20;10.15;;;13.70;99.90;;;;;;5131169;28;20130;-83
2021/07/21 00:55:34;;;;;;;18.45;10.63;;;13.70;99.90;;;;;;5131624;28;20040;-83
2021/07/21 00:58:01;;;;;;;17.00;10.93;;;13.60;99.90;;;;;;5131191;28;20034;-83
2021/07/21 01:00:28;;;;;;;15.45;9.73;;;13.60;99.90;;;;;;5114913;28;20043;-83
2021/07/21 01:02:55;;;;;;;17.40;10.48;;;13.60;99.90;;;;;;5130996;28;20046;-84
2021/07/21 01:05:29;;;;;;;16.70;9.40;;;13.60;99.90;;;;;;5131424;28;20472;-84
2021/07/21 01:07:56;;;;;;;17.52;10.13;;;13.60;99.90;;;;;;5131029;28;20067;-84
2021/07/21 01:10:24;;;;;;;19.25;10.60;;;13.60;99.90;;;;;;5131435;28;20035;-84
2021/07/21 01:13:11;;;;;;;16.42;10.55;;;13.50;99.90;;;;;;5131700;28;20488;-84
2021/07/21 01:15:52;;;;;;;18.25;10.30;;;13.50;99.90;;;;;;5148303;28;20125;-84
2021/07/21 01:18:32;;;;;;;16.42;10.77;;;13.50;99.90;;;;;;5148036;28;20038;-83
2021/07/21 01:21:23;;;;;;;17.85;10.68;;;13.50;99.90;;;;;;5147625;28;20059;-84
2021/07/21 01:24:02;;;;;;;16.95;10.88;;;13.50;99.90;;;;;;5148170;28;20039;-83
2021/07/21 01:26:45;;;;;;;17.55;10.50;;;13.50;99.90;;;;;;5148028;28;20066;-84
2021/07/21 01:29:13;;;;;;;19.75;10.52;;;13.50;99.90;;;;;;5147513;28;20047;-83
2021/07/21 01:31:43;;;;;;;17.73;10.88;;;13.50;99.90;;;;;;5147844;28;20085;-84
2021/07/21 01:34:10;;;;;;;19.45;11.13;;;13.50;99.90;;;;;;5148558;28;20479;-83
2021/07/21 01:36:40;;;;;;;17.27;10.63;;;13.40;99.90;;;;;;5148650;28;20043;-82
2021/07/21 01:39:14;;;;;;;20.52;11.23;;;13.40;99.90;;;;;;5147520;28;20467;-83
2021/07/21 01:41:50;;;;;;;19.92;11.05;;;13.40;99.90;;;;;;5147911;28;20035;-82
2021/07/21 01:44:25;;;;;;;17.02;10.63;;;13.40;99.90;;;;;;5147127;28;20480;-83
2021/07/21 01:46:58;;;;;;;20.83;11.25;;;13.40;99.90;;;;;;5147554;28;20028;-83
2021/07/21 01:49:34;;;;;;;23.88;11.70;;;13.40;99.90;;;;;;5147842;28;20043;-83
2021/07/21 01:52:08;;;;;;;19.63;11.55;;;13.40;99.90;;;;;;5147143;28;20036;-83
2021/07/21 01:54:36;;;;;;;19.13;10.45;;;13.30;99.90;;;;;;5147541;28;20061;-83
2021/07/21 01:57:03;;;;;;;16.52;11.15;;;13.40;99.90;;;;;;5113641;28;20066;-84
2021/07/21 01:59:32;;;;;;;19.58;11.98;;;13.40;99.90;;;;;;5114208;28;20403;-84
2021/07/21 02:02:01;;;;;;;19.65;11.77;;;13.50;99.90;;;;;;5130291;28;20039;-84
2021/07/21 02:04:29;;;;;;;20.98;12.55;;;13.50;99.90;;;;;;5147369;28;20040;-84
2021/07/21 02:06:56;;;;;;;21.65;12.75;;;13.70;99.90;;;;;;5130511;28;20097;-83
2021/07/21 02:09:24;;;;;;;23.02;13.50;;;13.70;99.90;;;;;;5150406;28;20039;-84
2021/07/21 02:11:52;;;;;;;23.63;14.88;;;13.60;99.90;;;;;;5134370;28;20380;-83
2021/07/21 02:14:19;;;;;;;22.50;12.82;;;13.70;99.90;;;;;;5151363;28;20060;-84
2021/07/21 02:16:46;;;;;;;25.67;13.82;;;13.70;99.90;;;;;;5134676;28;20035;-83
2021/07/21 02:19:13;;;;;;;25.42;14.38;;;13.70;99.90;;;;;;5134239;28;20047;-84
2021/07/21 02:21:41;;;;;;;24.00;13.85;;;13.70;99.90;;;;;;5134467;28;20040;-83
2021/07/21 02:24:09;;;;;;;23.88;14.38;;;13.60;99.90;;;;;;5134001;28;20122;-83
2021/07/21 02:26:38;;;;;;;19.92;13.02;;;13.60;99.90;;;;;;5151452;28;20041;-83
2021/07/21 02:29:06;;;;;;;22.55;13.82;;;13.60;99.90;;;;;;5134170;28;20040;-84
2021/07/21 02:31:39;;;;;;;25.15;13.55;;;13.50;99.90;;;;;;5134593;28;20044;-84
2021/07/21 02:34:06;;;;;;;25.10;13.48;;;13.50;99.90;;;;;;5151040;28;20082;-84
2021/07/21 02:36:34;;;;;;;21.95;12.70;;;13.40;99.90;;;;;;5134684;28;20059;-82
2021/07/21 02:39:05;;;;;;;22.35;13.32;;;13.40;99.90;;;;;;5134105;28;20447;-83
2021/07/21 02:41:34;;;;;;;23.55;13.65;;;13.40;99.90;;;;;;5134328;28;20058;-83
2021/07/21 02:44:03;;;;;;;24.52;13.57;;;13.30;99.90;;;;;;5134252;28;20036;-83
2021/07/21 02:46:30;;;;;;;20.50;13.15;;;13.30;99.90;;;;;;5151296;28;20373;-83
2021/07/21 02:48:58;;;;;;;24.95;13.23;;;13.30;99.90;;;;;;5133998;28;20043;-83
2021/07/21 02:51:56;;;;;;;23.52;13.25;;;13.20;99.90;;;;;;5133592;28;20040;-84
2021/07/21 02:54:44;;;;;;;23.70;13.65;;;13.20;99.90;;;;;;5133700;28;20071;-84
2021/07/21 02:57:41;;;;;;;23.05;12.75;;;13.10;99.90;;;;;;5150482;28;20035;-84
2021/07/21 03:00:11;;;;;;;21.67;12.25;;;13.10;99.90;;;;;;5150565;28;20071;-83
2021/07/21 03:02:40;;;;;;;23.42;13.07;;;13.10;99.90;;;;;;5150917;28;20407;-83
2021/07/21 03:05:11;;;;;;;24.00;13.90;;;13.20;99.90;;;;;;5116929;28;20039;-84
2021/07/21 03:07:42;;;;;;;27.17;14.00;;;13.30;99.90;;;;;;5150626;28;20039;-83
2021/07/21 03:10:13;;;;;;;23.80;14.15;;;13.40;99.90;;;;;;5150060;28;20035;-83
2021/07/21 03:12:45;;;;;;;23.25;14.05;;;13.60;99.90;;;;;;5150719;28;20115;-83
2021/07/21 03:15:14;;;;;;;25.42;13.85;;;13.60;99.90;;;;;;5150088;28;20088;-83
2021/07/21 03:17:46;;;;;;;23.58;14.20;;;13.70;99.90;;;;;;5150437;28;20035;-83
2021/07/21 03:20:15;;;;;;;21.67;13.07;;;13.80;99.90;;;;;;5133095;28;20051;-83
2021/07/21 03:22:43;;;;;;;23.60;14.55;;;13.80;99.90;;;;;;5151519;28;20060;-83
2021/07/21 03:25:11;;;;;;;23.13;14.30;;;13.90;99.90;;;;;;5149778;28;20385;-83
2021/07/21 03:27:39;;;;;;;22.20;13.77;;;13.90;99.90;;;;;;5132843;28;20055;-83
2021/07/21 03:30:09;;;;;;;25.33;13.30;;;13.90;99.90;;;;;;5132202;28;20042;-83
2021/07/21 03:32:39;;;;;;;24.67;13.13;;;14.00;99.90;;;;;;5132865;28;20043;-84
2021/07/21 03:35:07;;;;;;;22.35;13.30;;;14.00;99.90;;;;;;5148919;28;20079;-83
2021/07/21 03:37:38;;;;;;;24.05;13.63;;;14.00;99.90;;;;;;5115720;28;20036;-83
2021/07/21 03:40:06;;;;;;;27.05;13.30;;;14.10;99.90;;;;;;5149356;28;20085;-83
2021/07/21 03:42:34;;;;;;;24.75;13.85;;;14.10;99.90;;;;;;5131734;28;20394;-83
2021/07/21 03:45:06;;;;;;;24.95;13.68;;;14.20;99.90;;;;;;5150179;28;20062;-84
2021/07/21 03:47:34;;;;;;;27.00;15.10;;;14.20;99.90;;;;;;5147941;28;20092;-83
2021/07/21 03:50:03;;;;;;;32.67;15.23;;;14.20;99.90;;;;;;5131698;28;20066;-83
2021/07/21 03:52:31;;;;;;;28.02;13.48;;;14.20;99.90;;;;;;5150306;28;20040;-83
2021/07/21 03:54:58;;;;;;;27.45;14.38;;;14.30;99.90;;;;;;5132683;28;20039;-84
2021/07/21 03:57:25;;;;;;;25.45;14.15;;;14.30;99.90;;;;;;5132665;28;20380;-83
2021/07/21 03:59:53;;;;;;;25.80;14.25;;;14.30;99.90;;;;;;5151082;28;20543;-84
2021/07/21 04:02:20;;;;;;;26.10;13.60;;;14.30;99.90;;;;;;5132330;28;20028;-83
2021/07/21 04:04:49;;;;;;;25.70;13.40;;;14.30;99.90;;;;;;5115986;28;20067;-83
2021/07/21 04:07:18;;;;;;;26.25;13.25;;;14.30;99.90;;;;;;5115554;28;20035;-83
2021/07/21 04:09:49;;;;;;;25.42;13.45;;;14.30;99.90;;;;;;5132937;28;20043;-83
2021/07/21 04:12:18;;;;;;;22.75;12.15;;;14.40;99.90;;;;;;5149167;28;20043;-83
2021/07/21 04:14:49;;;;;;;24.50;12.85;;;14.40;99.90;;;;;;5149590;28;20116;-83
2021/07/21 04:17:17;;;;;;;24.88;12.52;;;14.50;99.90;;;;;;5150321;28;20032;-83
2021/07/21 04:19:46;;;;;;;22.95;12.95;;;14.50;99.90;;;;;;5148985;28;20048;-83
2021/07/21 04:22:13;;;;;;;22.60;12.77;;;14.60;99.90;;;;;;5115428;28;20045;-83
2021/07/21 04:24:44;;;;;;;25.23;14.10;;;14.60;99.90;;;;;;5149221;28;20106;-83
2021/07/21 04:27:13;;;;;;;25.15;13.25;;;14.50;99.90;;;;;;5149655;28;20036;-83
2021/07/21 04:29:41;;;;;;;25.33;12.23;;;14.60;99.90;;;;;;5131992;28;20039;-83
2021/07/21 04:32:09;;;;;;;22.70;13.02;;;14.70;99.90;;;;;;5115363;28;20039;-83
2021/07/21 04:34:37;;;;;;;23.02;12.30;;;14.70;99.90;;;;;;5148761;28;20404;-83
2021/07/21 04:37:04;;;;;;;27.63;15.63;;;14.70;99.90;;;;;;5115235;28;20032;-83
2021/07/21 04:39:31;;;;;;;25.20;13.18;;;14.70;99.90;;;;;;5131661;28;20039;-83
2021/07/21 04:41:59;;;;;;;21.52;11.77;;;14.70;99.90;;;;;;5132139;28;20123;-83
2021/07/21 04:44:26;;;;;;;18.83;11.05;;;14.70;99.90;;;;;;5131553;28;20042;-84
2021/07/21 04:46:54;;;;;;;23.77;14.07;;;14.80;99.90;;;;;;5115453;28;20122;-83
2021/07/21 04:49:22;;;;;;;22.48;12.32;;;14.80;99.90;;;;;;5148467;28;20047;-84
2021/07/21 04:51:52;;;;;;;20.95;12.32;;;14.80;99.90;;;;;;5149001;28;20064;-83
2021/07/21 04:54:19;;;;;;;23.00;12.30;;;14.80;99.90;;;;;;5148422;28;20060;-84
2021/07/21 04:56:46;;;;;;;18.02;10.77;;;14.90;99.90;;;;;;5132008;28;20032;-83
2021/07/21 04:59:13;;;;;;;19.52;11.23;;;14.90;99.90;;;;;;5148732;28;20069;-83
2021/07/21 05:01:40;;;;;;;22.33;11.85;;;14.90;99.90;;;;;;5131225;28;20400;-82
2021/07/21 05:04:07;;;;;;;19.60;10.90;;;14.90;99.90;;;;;;5115592;28;20055;-83
2021/07/21 05:06:34;;;;;;;22.23;12.98;;;15.00;99.90;;;;;;5131159;28;20042;-84
2021/07/21 05:09:01;;;;;;;19.67;10.98;;;15.00;99.90;;;;;;5131484;28;20035;-83
2021/07/21 05:11:28;;;;;;;17.40;10.27;;;15.10;99.90;;;;;;5097801;28;20046;-84
2021/07/21 05:13:56;;;;;;;19.23;9.95;;;15.10;99.90;;;;;;5114552;28;20054;-83
2021/07/21 05:16:23;;;;;;;14.73;9.68;;;15.10;99.90;;;;;;5131225;28;20032;-83
2021/07/21 05:18:50;;;;;;;20.08;10.15;;;15.20;99.90;;;;;;5131376;28;20039;-83
2021/07/21 05:21:17;;;;;;;15.38;9.52;;;15.30;99.90;;;;;;5114626;28;20480;-83
2021/07/21 05:23:44;;;;;;;19.63;11.88;;;15.30;99.90;;;;;;5130639;28;20395;-83
2021/07/21 05:26:11;;;;;;;20.95;11.98;;;15.40;99.90;;;;;;5113995;28;20036;-84
2021/07/21 05:28:39;;;;;;;17.10;10.63;;;15.40;99.90;;;;;;5147366;28;20115;-84
2021/07/21 05:31:07;;;;;;;18.33;11.43;;;15.40;99.90;;;;;;5131191;28;20118;-83
2021/07/21 05:33:34;;;;;;;19.52;11.07;;;15.50;99.90;;;;;;5130575;28;20492;-83
2021/07/21 05:36:03;;;;;;;16.95;9.65;;;15.60;99.90;;;;;;5113994;28;20059;-83
2021/07/21 05:38:30;;;;;;;14.63;9.88;;;15.60;99.90;;;;;;5130712;28;20418;-84
2021/07/21 05:40:58;;;;;;;13.88;8.85;;;15.70;99.90;;;;;;5148115;28;20039;-83
2021/07/21 05:43:26;;;;;;;14.63;8.70;;;15.80;99.90;;;;;;5146780;28;20057;-84
2021/07/21 05:45:53;;;;;;;16.63;9.50;;;15.80;99.90;;;;;;5114036;28;20395;-84
2021/07/21 05:48:20;;;;;;;13.73;8.02;;;15.90;99.90;;;;;;5131319;28;20110;-83
2021/07/21 05:50:47;;;;;;;15.98;9.32;;;15.90;99.90;;;;;;5130450;28;20046;-83
2021/07/21 05:53:14;;;;;;;13.18;8.27;;;16.00;99.90;;;;;;5131086;28;20035;-83
2021/07/21 05:55:41;;;;;;;13.40;8.60;;;16.00;99.90;;;;;;5130534;28;20039;-84
2021/07/21 05:58:08;;;;;;;12.75;8.20;;;16.10;99.90;;;;;;5130924;28;20080;-83
2021/07/21 06:00:35;;;;;;;13.23;7.93;;;16.10;99.90;;;;;;5130428;28;20036;-83
2021/07/21 06:03:02;;;;;;;13.18;8.40;;;16.20;99.90;;;;;;5147851;28;20607;-83
2021/07/21 06:05:29;;;;;;;14.00;8.15;;;16.20;99.90;;;;;;5130167;28;20464;-84
2021/07/21 06:07:56;;;;;;;15.65;9.45;;;16.30;99.90;;;;;;5147871;28;20036;-84
2021/07/21 06:10:22;;;;;;;14.32;9.05;;;16.40;99.90;;;;;;5130761;28;20066;-83
2021/07/21 06:12:49;;;;;;;18.35;9.88;;;16.40;99.90;;;;;;5147267;28;20040;-84
2021/07/21 06:15:16;;;;;;;15.90;9.10;;;16.40;99.90;;;;;;5130717;28;20088;-83
2021/07/21 06:17:44;;;;;;;14.95;8.80;;;16.60;99.90;;;;;;5130229;28;20106;-83
2021/07/21 06:20:11;;;;;;;16.48;9.30;;;16.60;99.90;;;;;;5147921;28;20096;-83
2021/07/21 06:22:39;;;;;;;14.07;9.43;;;16.60;99.90;;;;;;5130495;28;20036;-82
2021/07/21 06:25:07;;;;;;;13.00;9.32;;;16.70;99.90;;;;;;5130359;28;20039;-84
2021/07/21 06:27:34;;;;;;;13.77;7.82;;;16.80;99.90;;;;;;5129753;28;20536;-83
2021/07/21 06:30:06;;;;;;;12.73;7.43;;;16.80;99.90;;;;;;5147152;28;20115;-83
2021/07/21 06:32:35;;;;;;;13.60;7.90;;;16.90;99.90;;;;;;5146970;28;20032;-84
2021/07/21 06:35:03;;;;;;;13.80;8.00;;;16.90;99.90;;;;;;5147433;28;20050;-83
2021/07/21 06:37:31;;;;;;;11.35;7.53;;;17.00;99.90;;;;;;5130175;28;20050;-84
2021/07/21 06:39:58;;;;;;;12.77;7.93;;;17.10;99.90;;;;;;5147229;28;20071;-83
2021/07/21 06:42:25;;;;;;;14.02;8.68;;;17.20;99.90;;;;;;5130208;28;20412;-83
2021/07/21 06:44:53;;;;;;;14.20;7.30;;;17.30;99.90;;;;;;5146981;28;20150;-83
2021/07/21 06:47:21;;;;;;;10.18;7.05;;;17.40;99.90;;;;;;5113744;28;20047;-83
2021/07/21 06:49:49;;;;;;;12.63;7.28;;;17.40;99.90;;;;;;5147245;28;20097;-83
2021/07/21 06:52:17;;;;;;;11.15;7.15;;;17.50;99.90;;;;;;5130533;28;20035;-83
2021/07/21 06:54:44;;;;;;;9.63;7.25;;;17.50;99.90;;;;;;5149113;28;20395;-84
2021/07/21 06:57:12;;;;;;;9.50;6.60;;;17.50;99.90;;;;;;5151078;28;20036;-84
2021/07/21 06:59:39;;;;;;;13.77;7.15;;;17.60;99.90;;;;;;5133661;28;20460;-83
2021/07/21 07:02:07;;;;;;;9.45;6.05;;;17.70;99.90;;;;;;5134404;28;20031;-83
2021/07/21 07:04:34;;;;;;;9.05;6.43;;;17.90;99.90;;;;;;5133978;28;20035;-84
2021/07/21 07:07:00;;;;;;;10.07;5.97;;;17.90;99.90;;;;;;5133785;28;20047;-83
2021/07/21 07:09:27;;;;;;;8.40;5.90;;;18.00;99.90;;;;;;5133435;28;20027;-83
2021/07/21 07:11:54;;;;;;;9.07;6.03;;;18.00;99.90;;;;;;5133327;28;20069;-83
2021/07/21 07:14:22;;;;;;;9.48;6.10;;;18.10;99.90;;;;;;5133914;28;20032;-83
2021/07/21 07:16:49;;;;;;;9.93;5.57;;;18.20;99.90;;;;;;5133538;28;20065;-84
2021/07/21 07:19:16;;;;;;;11.05;5.63;;;18.20;99.90;;;;;;5150880;28;20043;-83
2021/07/21 07:21:43;;;;;;;8.73;5.80;;;18.30;99.90;;;;;;5133511;28;20044;-84
2021/07/21 07:24:11;;;;;;;11.32;5.80;;;18.40;99.90;;;;;;5150584;28;20035;-83
2021/07/21 07:26:37;;;;;;;11.35;6.03;;;18.50;99.90;;;;;;5133033;28;20391;-83
2021/07/21 07:29:05;;;;;;;10.45;6.00;;;18.50;99.90;;;;;;5150509;28;20036;-83
2021/07/21 07:31:33;;;;;;;12.27;6.53;;;18.60;99.90;;;;;;5150227;28;20553;-83
2021/07/21 07:33:59;;;;;;;11.15;5.70;;;18.70;99.90;;;;;;5149577;28;20070;-83
2021/07/21 07:36:26;;;;;;;8.30;5.55;;;18.70;99.90;;;;;;5133136;28;20130;-83
2021/07/21 07:38:54;;;;;;;8.63;5.78;;;18.70;99.90;;;;;;5132651;28;20039;-83
2021/07/21 07:41:21;;;;;;;7.85;5.53;;;18.80;99.90;;;;;;5133169;28;20115;-84
2021/07/21 07:43:51;;;;;;;9.50;5.25;;;18.90;99.90;;;;;;5149730;28;20543;-84
2021/07/21 07:46:19;;;;;;;10.20;5.70;;;19.00;99.90;;;;;;5133190;28;20063;-83
2021/07/21 07:48:46;;;;;;;7.28;5.43;;;19.00;99.90;;;;;;5132909;28;20046;-83
2021/07/21 07:51:12;;;;;;;11.52;5.50;;;19.10;99.90;;;;;;5132863;28;20039;-83
2021/07/21 07:53:39;;;;;;;10.65;5.38;;;19.10;99.90;;;;;;5115517;28;20043;-84
2021/07/21 07:56:06;;;;;;;8.02;5.50;;;19.30;99.90;;;;;;5132876;28;20468;-84
2021/07/21 07:58:33;;;;;;;8.30;5.13;;;19.40;99.90;;;;;;5133110;28;20122;-83
2021/07/21 08:01:00;;;;;;;8.02;5.25;;;19.40;99.90;;;;;;5149277;28;20036;-84
2021/07/21 08:03:27;;;;;;;8.63;5.63;;;19.40;99.90;;;;;;5132842;28;20118;-83
2021/07/21 08:05:55;;;;;;;8.38;5.85;;;19.40;99.90;;;;;;5131370;28;20464;-84
2021/07/21 08:08:22;;;;;;;8.70;5.43;;;19.40;99.90;;;;;;5132943;28;20032;-84
2021/07/21 08:10:49;;;;;;;7.38;5.00;;;19.60;99.90;;;;;;5149240;28;20051;-84
2021/07/21 08:13:19;;;;;;;8.43;5.28;;;19.70;99.90;;;;;;5149433;28;20063;-83
2021/07/21 08:15:47;;;;;;;8.57;5.32;;;19.80;99.90;;;;;;5132503;28;20060;-83
2021/07/21 08:18:14;;;;;;;11.05;5.45;;;19.90;99.90;;;;;;5132894;28;20395;-83
2021/07/21 08:20:42;;;;;;;7.95;5.00;;;20.00;99.90;;;;;;5148930;28;20039;-84
2021/07/21 08:23:10;;;;;;;8.05;4.65;;;20.00;99.90;;;;;;5150733;28;20144;-83
2021/07/21 08:25:37;;;;;;;8.73;5.30;;;20.10;99.90;;;;;;5132524;28;20036;-83
2021/07/21 08:28:04;;;;;;;9.15;5.32;;;20.20;99.90;;;;;;5131658;28;20038;-83
2021/07/21 08:30:31;;;;;;;7.13;4.57;;;20.20;99.90;;;;;;5149011;28;20051;-83
2021/07/21 08:32:58;;;;;;;9.57;5.25;;;20.30;99.90;;;;;;5131512;28;20032;-83
2021/07/21 08:35:30;;;;;;;7.03;4.78;;;20.20;99.90;;;;;;5150136;28;20052;-83
2021/07/21 08:37:58;;;;;;;6.82;4.75;;;20.20;99.90;;;;;;5148959;28;20450;-83
2021/07/21 08:40:27;;;;;;;8.57;5.20;;;20.10;99.90;;;;;;5132076;28;20046;-83
2021/07/21 08:42:55;;;;;;;7.80;5.10;;;20.20;99.90;;;;;;5131554;28;20429;-83
2021/07/21 08:45:22;;;;;;;8.40;4.80;;;20.20;99.90;;;;;;5132278;28;20482;-83
2021/07/21 08:47:49;;;;;;;8.10;4.90;;;20.30;99.90;;;;;;5148479;28;20035;-84
2021/07/21 08:50:16;;;;;;;7.18;4.68;;;20.30;99.90;;;;;;5148793;28;20369;-83
2021/07/21 08:52:43;;;;;;;6.95;4.57;;;20.40;99.90;;;;;;5131780;28;20047;-83
2021/07/21 08:55:12;;;;;;;6.38;4.47;;;20.40;99.90;;;;;;5131530;28;20384;-84
2021/07/21 08:57:39;;;;;;;5.93;4.00;;;20.50;99.90;;;;;;5132041;28;20089;-83
2021/07/21 09:00:10;;;;;;;6.80;4.70;;;20.50;99.90;;;;;;5131287;28;20046;-84
2021/07/21 09:02:38;;;;;;;6.72;4.63;;;20.50;99.90;;;;;;5131902;28;20050;-82
2021/07/21 09:05:09;;;;;;;6.57;4.40;;;20.40;99.90;;;;;;5131309;28;20463;-83
2021/07/21 09:07:37;;;;;;;8.77;4.38;;;20.50;99.90;;;;;;5131554;28;20035;-83
2021/07/21 09:10:10;;;;;;;7.28;4.60;;;20.40;99.90;;;;;;5131076;28;20400;-83
2021/07/21 09:12:42;;;;;;;7.25;4.25;;;20.50;99.90;;;;;;5148679;28;20499;-83
2021/07/21 09:15:11;;;;;;;6.75;4.40;;;20.50;99.90;;;;;;5131511;28;20468;-83
2021/07/21 09:18:13;;;;;;;6.78;4.38;;;20.50;99.90;;;;;;5148447;28;20036;-83
2021/07/21 09:20:44;;;;;;;7.78;4.88;;;20.60;99.90;;;;;;5148263;28;20039;-83
2021/07/21 09:23:11;;;;;;;8.65;4.63;;;20.60;99.90;;;;;;5149447;28;20043;-83
2021/07/21 09:25:39;;;;;;;7.97;4.53;;;20.60;99.90;;;;;;5131140;28;20050;-83
2021/07/21 09:28:09;;;;;;;6.35;4.10;;;20.70;99.90;;;;;;5130809;28;20109;-83
2021/07/21 09:30:38;;;;;;;6.70;4.47;;;20.80;99.90;;;;;;5130942;28;20118;-82
2021/07/21 09:33:10;;;;;;;7.20;4.68;;;20.80;99.90;;;;;;5147745;28;20039;-83
2021/07/21 09:35:40;;;;;;;8.18;4.45;;;20.70;99.90;;;;;;5130713;28;20044;-82
2021/07/21 09:38:28;;;;;;;8.57;4.93;;;20.80;99.90;;;;;;5130309;28;20047;-83
2021/07/21 09:41:01;;;;;;;6.93;4.45;;;20.80;99.90;;;;;;5147867;28;20043;-83
2021/07/21 09:43:31;;;;;;;8.27;4.95;;;20.80;99.90;;;;;;5147936;28;20031;-83
2021/07/21 09:46:07;;;;;;;6.78;4.47;;;20.70;99.90;;;;;;5130193;28;20032;-83
2021/07/21 09:48:41;;;;;;;7.47;4.70;;;20.80;99.90;;;;;;5147554;28;20031;-82
2021/07/21 09:51:10;;;;;;;7.13;4.85;;;20.70;99.90;;;;;;5147430;28;20490;-83
2021/07/21 09:53:45;;;;;;;8.18;5.05;;;20.70;99.90;;;;;;5131053;28;20031;-82
2021/07/21 09:56:13;;;;;;;11.10;5.30;;;20.70;99.90;;;;;;5148567;28;20050;-83
2021/07/21 09:58:40;;;;;;;7.80;4.85;;;20.80;99.90;;;;;;5130967;28;20039;-83
2021/07/21 10:01:07;;;;;;;7.45;4.68;;;20.90;99.90;;;;;;5130256;28;20034;-83
2021/07/21 10:03:40;;;;;;;6.75;4.90;;;20.90;99.90;;;;;;5130803;28;20036;-83
2021/07/21 10:06:08;;;;;;;9.18;5.07;;;21.00;99.90;;;;;;5114718;28;20048;-84
2021/07/21 10:08:48;;;;;;;8.95;5.38;;;21.20;99.90;;;;;;5131040;28;20042;-83
2021/07/21 10:11:29;;;;;;;9.00;5.45;;;21.30;99.90;;;;;;5147477;28;20036;-83
2021/07/21 10:14:12;;;;;;;6.85;4.47;;;21.40;99.90;;;;;;5147525;28;20039;-83
2021/07/21 10:16:45;;;;;;;11.75;4.95;;;21.60;99.90;;;;;;5131084;28;20043;-82
2021/07/21 10:19:16;;;;;;;7.72;4.60;;;21.70;99.90;;;;;;5147238;28;20044;-83
2021/07/21 10:21:46;;;;;;;6.72;4.25;;;21.80;99.90;;;;;;5147848;28;20036;-83
2021/07/21 10:24:13;;;;;;;7.60;4.55;;;21.80;99.90;;;;;;5148272;28;20039;-83
2021/07/21 10:26:41;;;;;;;8.48;4.60;;;21.90;99.90;;;;;;5130761;28;20373;-83
2021/07/21 10:29:09;;;;;;;8.13;4.78;;;22.10;99.90;;;;;;5131482;28;20405;-84
2021/07/21 10:31:37;;;;;;;8.23;5.05;;;22.30;99.90;;;;;;5134697;28;20463;-83
2021/07/21 10:34:04;;;;;;;7.30;4.93;;;22.40;99.90;;;;;;5134166;28;20062;-83
2021/07/21 10:36:32;;;;;;;7.10;4.70;;;22.60;99.90;;;;;;5151722;28;20039;-83
2021/07/21 10:39:02;;;;;;;6.78;4.85;;;22.80;99.90;;;;;;5134212;28;20118;-83
2021/07/21 10:41:30;;;;;;;6.68;4.68;;;22.90;99.90;;;;;;5151566;28;20043;-83
2021/07/21 10:43:59;;;;;;;7.15;4.63;;;23.10;99.90;;;;;;5134039;28;20035;-83
2021/07/21 10:46:40;;;;;;;6.72;4.78;;;23.10;99.90;;;;;;5151246;28;20092;-83
2021/07/21 10:49:30;;;;;;;6.68;4.35;;;23.20;99.90;;;;;;5134973;28;20426;-84
2021/07/21 11:00:31;;;;;;;6.50;4.68;;;23.30;99.90;;;;;;5151814;28;20062;-84
2021/07/21 11:03:18;;;;;;;6.40;4.32;;;23.30;99.90;;;;;;5134072;28;20130;-83
2021/07/21 11:05:50;;;;;;;6.30;4.75;;;23.30;99.90;;;;;;5150954;28;20113;-84
2021/07/21 11:08:22;;;;;;;8.05;4.97;;;23.30;99.90;;;;;;5150464;28;20039;-83
2021/07/21 11:10:51;;;;;;;8.75;4.68;;;23.30;99.90;;;;;;5151094;28;20110;-83
2021/07/21 11:13:39;;;;;;;6.55;4.43;;;23.30;99.90;;;;;;5150490;28;20065;-83
2021/07/21 11:16:26;;;;;;;10.98;4.70;;;23.10;99.90;;;;;;5150656;28;20032;-83
2021/07/21 11:18:53;;;;;;;8.85;4.90;;;23.10;99.90;;;;;;5150842;28;20043;-83
2021/07/21 11:21:20;;;;;;;7.20;4.65;;;23.10;99.90;;;;;;5133178;28;20035;-83
2021/07/21 11:23:53;;;;;;;6.38;4.45;;;23.20;99.90;;;;;;5133912;28;20080;-83
2021/07/21 11:26:27;;;;;;;11.25;4.80;;;23.30;99.90;;;;;;5150235;28;20027;-83
2021/07/21 11:28:54;;;;;;;6.75;4.57;;;23.50;99.90;;;;;;5133522;28;20039;-83
2021/07/21 11:31:55;;;;;;;8.85;4.57;;;23.70;99.90;;;;;;5150279;28;20437;-83
2021/07/21 11:34:28;;;;;;;10.13;4.75;;;23.70;99.90;;;;;;5150124;28;20059;-83
2021/07/21 11:37:16;;;;;;;8.25;4.68;;;23.40;99.90;;;;;;5150130;28;20039;-82
2021/07/21 11:39:50;;;;;;;7.45;4.53;;;23.20;99.90;;;;;;5150049;28;20040;-83
2021/07/21 11:42:23;;;;;;;8.95;4.63;;;23.10;99.90;;;;;;5149452;28;20056;-83
2021/07/21 11:45:03;;;;;;;7.20;4.88;;;22.90;99.90;;;;;;5150372;28;20071;-83
2021/07/21 11:47:35;;;;;;;6.85;5.00;;;22.80;99.90;;;;;;5150471;28;20100;-83
2021/07/21 11:50:08;;;;;;;7.35;4.38;;;22.60;99.90;;;;;;5150315;28;20093;-83
2021/07/21 11:52:35;;;;;;;7.97;5.10;;;22.60;99.90;;;;;;5150655;28;20081;-83
2021/07/21 11:55:03;;;;;;;7.20;4.45;;;22.60;99.90;;;;;;5133338;28;20035;-83
2021/07/21 11:57:29;;;;;;;8.02;5.10;;;22.50;99.90;;;;;;5150823;28;20032;-83
2021/07/21 11:59:58;;;;;;;9.63;4.80;;;22.40;99.90;;;;;;5133113;28;20042;-83
2021/07/21 12:02:26;;;;;;;10.25;5.63;;;22.30;99.90;;;;;;5132698;28;20051;-83
2021/07/21 12:04:55;;;;;;;9.65;5.38;;;22.30;99.90;;;;;;5149930;28;20039;-83
2021/07/21 12:07:30;;;;;;;8.98;5.50;;;22.20;99.90;;;;;;5149520;28;20061;-83
2021/07/21 12:09:57;;;;;;;7.90;4.95;;;22.20;99.90;;;;;;5149935;28;20463;-83
2021/07/21 12:12:25;;;;;;;11.82;5.65;;;22.30;99.90;;;;;;5132594;28;20047;-83
2021/07/21 12:14:55;;;;;;;10.07;5.90;;;22.30;99.90;;;;;;5149102;28;20047;-81
2021/07/21 12:17:26;;;;;;;8.88;5.38;;;22.30;99.90;;;;;;5148816;28;20084;-85
2021/07/21 12:19:58;;;;;;;10.38;5.97;;;22.30;99.90;;;;;;5149799;28;20066;-86
2021/07/21 12:22:29;;;;;;;9.20;5.72;;;22.30;99.90;;;;;;5149262;28;20489;-85
2021/07/21 12:24:59;;;;;;;7.78;5.30;;;22.40;99.90;;;;;;5149663;28;20046;-85
2021/07/21 12:27:33;;;;;;;9.07;5.55;;;22.30;99.90;;;;;;5149299;28;20040;-85
2021/07/21 12:30:03;;;;;;;6.37;4.90;;;22.30;99.90;;;;;;5149958;28;20118;-85
2021/07/21 12:32:30;;;;;;;7.70;5.55;;;22.30;99.90;;;;;;5149426;28;20287;-85
2021/07/21 12:34:57;;;;;;;8.00;5.50;;;22.20;99.90;;;;;;5149719;28;20138;-85
2021/07/21 12:37:29;;;;;;;7.95;5.30;;;22.20;99.90;;;;;;5131706;28;20131;-85
2021/07/21 12:39:58;;;;;;;8.10;5.35;;;22.20;99.90;;;;;;5149395;28;20434;-86
2021/07/21 12:42:28;;;;;;;7.85;5.30;;;22.20;99.90;;;;;;5131927;28;20468;-86
2021/07/21 12:45:08;;;;;;;8.63;5.72;;;22.20;99.90;;;;;;5149697;28;20036;-85
2021/07/21 12:47:40;;;;;;;7.28;4.95;;;22.20;99.90;;;;;;5149308;28;20094;-85
2021/07/21 12:50:11;;;;;;;8.55;5.28;;;22.30;99.90;;;;;;5149369;28;20405;-85
2021/07/21 12:52:44;;;;;;;8.30;5.80;;;22.40;99.90;;;;;;5148988;28;20482;-84
2021/07/21 12:55:16;;;;;;;10.55;5.38;;;22.50;99.90;;;;;;5148758;28;20038;-84
2021/07/21 12:57:45;;;;;;;7.53;5.05;;;22.60;99.90;;;;;;5149088;28;20492;-85
2021/07/21 13:00:18;;;;;;;8.10;5.53;;;22.50;99.90;;;;;;5148452;28;20036;-85